createdAt,value
2023-01-15T00:02:17.657Z,78.08
2023-01-15T00:04:44.786Z,77.87
2023-01-15T00:07:12.071Z,78.03
2023-01-15T00:09:38.936Z,77.82
2023-01-15T00:12:06.137Z,78.05
2023-01-15T00:14:33.207Z,78.17
2023-01-15T00:17:00.640Z,78.01
2023-01-15T00:19:27.675Z,78.23
2023-01-15T00:21:54.933Z,78.40
2023-01-15T00:24:40.152Z,78.40
2023-01-15T00:27:29.223Z,78.58
2023-01-15T00:29:56.181Z,78.97
2023-01-15T00:32:23.435Z,78.89
2023-01-15T00:34:50.340Z,78.65
2023-01-15T00:37:17.629Z,78.45
2023-01-15T00:39:44.580Z,78.75
2023-01-15T00:42:12.473Z,78.97
2023-01-15T00:44:39.687Z,78.91
2023-01-15T00:47:09.049Z,78.33
2023-01-15T00:49:35.945Z,78.31
2023-01-15T00:52:03.416Z,78.12
2023-01-15T00:54:31.079Z,77.94
2023-01-15T00:56:59.007Z,78.06
2023-01-15T00:59:26.027Z,78.12
2023-01-15T01:01:54.039Z,78.04
2023-01-15T01:04:21.119Z,77.83
2023-01-15T01:06:48.399Z,77.69
2023-01-15T01:09:16.501Z,78.02
2023-01-15T01:11:44.208Z,78.23
2023-01-15T01:14:12.127Z,78.11
2023-01-15T01:16:42.047Z,78.29
2023-01-15T01:19:17.517Z,78.26
2023-01-15T01:21:46.126Z,78.50
2023-01-15T01:24:15.936Z,78.42
2023-01-15T01:26:46.562Z,78.24
2023-01-15T01:29:15.153Z,78.42
2023-01-15T01:31:43.017Z,78.09
2023-01-15T01:34:11.635Z,78.37
2023-01-15T01:36:40.885Z,78.47
2023-01-15T01:39:12.206Z,78.55
2023-01-15T01:41:39.247Z,78.39
2023-01-15T01:44:27.984Z,78.34
2023-01-15T01:46:55.129Z,78.62
2023-01-15T01:49:23.478Z,78.75
2023-01-15T01:51:56.240Z,78.81
2023-01-15T01:54:25.293Z,78.87
2023-01-15T01:56:53.283Z,78.96
2023-01-15T01:59:22.354Z,79.61
2023-01-15T02:01:50.748Z,79.36
2023-01-15T02:04:22.352Z,79.77
2023-01-15T02:06:51.487Z,79.58
2023-01-15T02:09:18.864Z,79.66
2023-01-15T02:11:46.179Z,80.16
2023-01-15T02:14:37.225Z,80.31
2023-01-15T02:17:15.375Z,80.62
2023-01-15T02:19:42.276Z,80.34
2023-01-15T02:22:34.610Z,79.95
2023-01-15T02:25:27.394Z,80.01
2023-01-15T02:28:01.965Z,80.03
2023-01-15T02:30:34.293Z,79.29
2023-01-15T02:33:17.649Z,79.28
2023-01-15T02:35:52.995Z,79.08
2023-01-15T02:38:23.672Z,79.43
2023-01-15T02:40:56.561Z,79.37
2023-01-15T02:43:25.417Z,78.71
2023-01-15T02:45:58.371Z,78.76
2023-01-15T02:48:30.288Z,78.40
2023-01-15T02:51:12.115Z,77.98
2023-01-15T02:53:43.826Z,77.85
2023-01-15T02:56:18.968Z,78.17
2023-01-15T02:58:54.562Z,78.69
2023-01-15T03:01:32.255Z,78.59
2023-01-15T03:04:27.260Z,78.79
2023-01-15T03:07:18.884Z,78.73
2023-01-15T03:09:47.967Z,78.67
2023-01-15T03:12:27.610Z,78.71
2023-01-15T03:15:11.704Z,78.73
2023-01-15T03:17:51.735Z,78.49
2023-01-15T03:20:25.691Z,78.28
2023-01-15T03:23:00.777Z,78.26
2023-01-15T03:25:34.880Z,78.40
2023-01-15T03:28:05.552Z,78.01
2023-01-15T03:30:34.496Z,77.93
2023-01-15T03:33:03.953Z,77.98
2023-01-15T03:35:58.427Z,77.69
2023-01-15T03:38:38.501Z,77.77
2023-01-15T03:41:48.913Z,77.79
2023-01-15T03:44:57.185Z,77.63
2023-01-15T03:47:42.633Z,77.81
2023-01-15T03:50:26.393Z,77.76
2023-01-15T03:53:02.973Z,77.35
2023-01-15T03:55:40.003Z,77.56
2023-01-15T03:58:17.428Z,77.31
2023-01-15T04:00:51.297Z,77.36
2023-01-15T04:03:22.397Z,77.27
2023-01-15T04:05:51.645Z,77.17
2023-01-15T04:08:21.165Z,77.33
2023-01-15T04:10:55.917Z,77.10
2023-01-15T04:13:26.347Z,77.28
2023-01-15T04:15:54.979Z,77.27
2023-01-15T04:18:22.570Z,77.40
2023-01-15T04:20:49.690Z,77.06
2023-01-15T04:23:16.944Z,77.15
2023-01-15T04:25:43.882Z,76.87
2023-01-15T04:28:11.378Z,76.87
2023-01-15T04:30:38.700Z,76.85
2023-01-15T04:33:05.966Z,76.69
2023-01-15T04:35:32.942Z,76.77
2023-01-15T04:38:00.647Z,76.59
2023-01-15T04:40:46.360Z,76.58
2023-01-15T04:43:33.109Z,76.79
2023-01-15T04:46:00.139Z,76.81
2023-01-15T04:48:27.735Z,76.96
2023-01-15T04:50:55.189Z,76.97
2023-01-15T04:53:22.356Z,76.65
2023-01-15T04:55:49.274Z,76.11
2023-01-15T04:58:16.412Z,76.38
2023-01-15T05:00:43.479Z,76.35
2023-01-15T05:03:12.280Z,75.83
2023-01-15T05:05:39.143Z,76.04
2023-01-15T05:08:06.268Z,76.36
2023-01-15T05:10:33.222Z,76.23
2023-01-15T05:13:00.372Z,75.81
2023-01-15T05:15:27.380Z,75.67
2023-01-15T05:17:54.578Z,75.72
2023-01-15T05:20:21.520Z,75.31
2023-01-15T05:22:48.736Z,75.16
2023-01-15T05:25:15.769Z,74.84
2023-01-15T05:27:43.304Z,74.88
2023-01-15T05:30:11.107Z,74.62
2023-01-15T05:32:38.465Z,74.59
2023-01-15T05:35:05.727Z,73.96
2023-01-15T05:37:32.915Z,73.92
2023-01-15T05:39:59.766Z,73.76
2023-01-15T05:42:26.908Z,73.74
2023-01-15T05:44:53.929Z,73.79
2023-01-15T05:47:21.039Z,73.72
2023-01-15T05:49:50.164Z,73.50
2023-01-15T05:52:17.368Z,73.34
2023-01-15T05:54:44.425Z,72.88
2023-01-15T05:57:13.128Z,72.88
2023-01-15T05:59:40.412Z,73.08
2023-01-15T06:02:07.598Z,73.00
2023-01-15T06:04:34.556Z,73.06
2023-01-15T06:07:01.790Z,72.95
2023-01-15T06:09:29.636Z,72.93
2023-01-15T06:11:58.105Z,72.65
2023-01-15T06:14:25.512Z,73.08
2023-01-15T06:16:52.725Z,72.74
2023-01-15T06:19:19.705Z,73.12
2023-01-15T06:21:46.965Z,73.48
2023-01-15T06:24:16.591Z,73.53
2023-01-15T06:26:43.943Z,73.63
2023-01-15T06:29:11.492Z,73.08
2023-01-15T06:31:38.975Z,72.97
2023-01-15T06:34:05.866Z,73.22
2023-01-15T06:36:33.110Z,73.13
2023-01-15T06:39:00.045Z,73.50
2023-01-15T06:41:45.666Z,73.38
2023-01-15T06:44:34.531Z,73.50
2023-01-15T06:47:23.223Z,73.29
2023-01-15T06:49:53.652Z,73.33
2023-01-15T06:52:21.462Z,74.22
2023-01-15T06:54:48.498Z,74.11
2023-01-15T06:57:15.793Z,74.44
2023-01-15T06:59:42.667Z,73.96
2023-01-15T07:02:11.710Z,74.70
2023-01-15T07:04:38.725Z,75.59
2023-01-15T07:07:05.937Z,76.34
2023-01-15T07:09:32.921Z,77.22
2023-01-15T07:12:00.188Z,77.56
2023-01-15T07:14:28.259Z,78.40
2023-01-15T07:16:55.796Z,78.87
2023-01-15T07:19:22.759Z,79.83
2023-01-15T07:21:50.076Z,80.03
2023-01-15T07:24:17.479Z,81.14
2023-01-15T07:26:45.859Z,81.80
2023-01-15T07:29:13.508Z,81.75
2023-01-15T07:31:41.537Z,81.55
2023-01-15T07:34:08.570Z,82.08
2023-01-15T07:36:36.435Z,82.17
2023-01-15T07:39:05.558Z,82.63
2023-01-15T07:41:51.635Z,83.85
2023-01-15T07:44:39.097Z,83.74
2023-01-15T07:47:38.033Z,83.80
2023-01-15T07:50:07.527Z,83.68
2023-01-15T07:52:35.113Z,84.22
2023-01-15T07:55:02.320Z,84.47
2023-01-15T07:57:29.759Z,84.19
2023-01-15T07:59:57.185Z,83.64
2023-01-15T08:02:24.363Z,83.93
2023-01-15T08:04:51.449Z,83.58
2023-01-15T08:07:18.886Z,84.40
2023-01-15T08:09:45.842Z,83.99
2023-01-15T08:12:31.595Z,83.78
2023-01-15T08:15:13.559Z,83.15
2023-01-15T08:17:43.858Z,83.27
2023-01-15T08:20:14.627Z,83.45
2023-01-15T08:22:41.939Z,82.71
2023-01-15T08:25:10.499Z,82.90
2023-01-15T08:27:39.391Z,83.05
2023-01-15T08:30:09.054Z,83.10
2023-01-15T08:32:36.279Z,83.02
2023-01-15T08:35:03.357Z,83.16
2023-01-15T08:37:30.744Z,83.14
2023-01-15T08:39:57.811Z,82.80
2023-01-15T08:42:25.011Z,83.52
2023-01-15T08:44:51.970Z,83.99
2023-01-15T08:47:19.230Z,83.66
2023-01-15T08:49:47.517Z,84.15
2023-01-15T08:52:15.302Z,83.20
2023-01-15T08:54:42.566Z,83.74
2023-01-15T08:57:12.054Z,83.73
2023-01-15T08:59:39.095Z,83.77
2023-01-15T09:02:06.406Z,84.32
2023-01-15T09:04:33.392Z,84.73
2023-01-15T09:07:00.822Z,84.51
2023-01-15T09:09:27.809Z,84.69
2023-01-15T09:11:54.993Z,85.04
2023-01-15T09:14:56.541Z,84.98
2023-01-15T09:17:09.218Z,85.37
2023-01-15T09:19:36.051Z,85.48
2023-01-15T09:22:03.558Z,84.87
2023-01-15T09:24:30.608Z,86.22
2023-01-15T09:26:57.862Z,86.12
2023-01-15T09:29:24.846Z,86.46
2023-01-15T09:31:51.982Z,86.64
2023-01-15T09:34:18.849Z,86.91
2023-01-15T09:36:46.591Z,86.90
2023-01-15T09:39:13.554Z,87.32
2023-01-15T09:42:13.491Z,87.40
2023-01-15T09:45:00.194Z,88.14
2023-01-15T09:47:36.630Z,87.88
2023-01-15T09:50:28.584Z,88.17
2023-01-15T09:53:19.645Z,88.06
2023-01-15T09:55:52.185Z,89.10
2023-01-15T09:58:27.735Z,89.23
2023-01-15T10:00:54.787Z,89.80
2023-01-15T10:03:45.232Z,89.91
2023-01-15T10:06:22.883Z,90.46
2023-01-15T10:08:51.345Z,90.85
2023-01-15T10:11:18.821Z,90.76
2023-01-15T10:13:50.760Z,91.00
2023-01-15T10:16:25.605Z,91.03
2023-01-15T10:18:53.584Z,91.37
2023-01-15T10:21:35.651Z,91.63
2023-01-15T10:24:17.877Z,91.53
2023-01-15T10:26:55.325Z,91.62
2023-01-15T10:29:50.257Z,91.87
2023-01-15T10:32:36.039Z,92.53
2023-01-15T10:35:11.161Z,92.80
2023-01-15T10:37:43.207Z,92.47
2023-01-15T10:40:29.169Z,92.94
2023-01-15T10:43:24.458Z,92.74
2023-01-15T10:45:56.618Z,92.72
2023-01-15T10:48:44.307Z,92.99
2023-01-15T10:51:22.054Z,92.71
2023-01-15T10:53:54.172Z,93.41
2023-01-15T10:56:43.114Z,92.75
2023-01-15T10:59:22.482Z,93.25
2023-01-15T11:01:55.384Z,93.26
2023-01-15T11:04:23.302Z,93.81
2023-01-15T11:07:12.691Z,94.26
2023-01-15T11:09:41.592Z,94.26
2023-01-15T11:12:47.722Z,94.21
2023-01-15T11:15:36.002Z,94.96
2023-01-15T11:18:22.293Z,95.23
2023-01-15T11:20:50.363Z,95.36
2023-01-15T11:23:21.011Z,95.27
2023-01-15T11:25:54.215Z,96.13
2023-01-15T11:28:43.417Z,96.16
2023-01-15T11:31:12.605Z,96.20
2023-01-15T11:33:40.209Z,96.40
2023-01-15T11:36:20.698Z,96.13
2023-01-15T11:39:05.952Z,96.00
2023-01-15T11:41:53.348Z,96.23
2023-01-15T11:44:41.518Z,96.72
2023-01-15T11:47:36.963Z,96.13
2023-01-15T11:50:36.283Z,96.51
2023-01-15T11:53:03.719Z,96.34
2023-01-15T11:55:31.239Z,96.13
2023-01-15T11:57:58.632Z,96.53
2023-01-15T12:00:33.080Z,96.49
2023-01-15T12:03:06.094Z,96.72
2023-01-15T12:05:35.929Z,96.78
2023-01-15T12:08:13.781Z,97.07
2023-01-15T12:11:21.133Z,97.17
2023-01-15T12:14:17.304Z,97.47
2023-01-15T12:17:16.730Z,97.56
2023-01-15T12:19:57.268Z,97.25
2023-01-15T12:22:48.874Z,97.52
2023-01-15T12:25:34.637Z,97.19
2023-01-15T12:28:24.528Z,97.05
2023-01-15T12:31:07.321Z,97.37
2023-01-15T12:33:45.707Z,97.45
2023-01-15T12:36:23.854Z,97.41
2023-01-15T12:39:01.595Z,96.87
2023-01-15T12:41:48.755Z,96.32
2023-01-15T12:44:40.470Z,96.65
2023-01-15T12:47:11.186Z,96.65
2023-01-15T12:49:48.477Z,96.15
2023-01-15T12:52:24.342Z,96.45
2023-01-15T12:55:00.401Z,96.10
2023-01-15T12:57:36.890Z,96.37
2023-01-15T13:00:09.694Z,96.57
2023-01-15T13:03:03.275Z,96.78
2023-01-15T13:05:35.468Z,96.00
2023-01-15T13:08:16.441Z,96.32
2023-01-15T13:10:43.726Z,95.23
2023-01-15T13:13:24.661Z,95.48
2023-01-15T13:16:37.986Z,95.64
2023-01-15T13:19:20.269Z,95.80
2023-01-15T13:21:52.880Z,94.90
2023-01-15T13:24:35.128Z,94.63
2023-01-15T13:27:20.645Z,94.96
2023-01-15T13:30:18.006Z,94.79
2023-01-15T13:32:50.036Z,94.46
2023-01-15T13:35:32.528Z,94.60
2023-01-15T13:38:08.574Z,94.29
2023-01-15T13:40:40.771Z,94.05
2023-01-15T13:43:10.051Z,93.75
2023-01-15T13:45:42.273Z,94.40
2023-01-15T13:48:34.405Z,93.73
2023-01-15T13:51:05.035Z,93.29
2023-01-15T13:53:44.522Z,92.72
2023-01-15T13:56:15.748Z,93.05
2023-01-15T13:58:53.201Z,92.98
2023-01-15T14:01:23.068Z,92.42
2023-01-15T14:04:15.307Z,93.37
2023-01-15T14:06:47.343Z,91.97
2023-01-15T14:09:17.069Z,91.62
2023-01-15T14:11:59.653Z,91.23
2023-01-15T14:14:52.940Z,90.90
2023-01-15T14:17:26.316Z,91.33
2023-01-15T14:20:15.028Z,91.25
2023-01-15T14:22:44.985Z,90.97
2023-01-15T14:25:35.812Z,90.94
2023-01-15T14:28:08.833Z,89.82
2023-01-15T14:31:02.702Z,89.96
2023-01-15T14:34:07.425Z,89.71
2023-01-15T14:36:41.020Z,89.12
2023-01-15T14:39:33.924Z,89.26
2023-01-15T14:42:28.522Z,89.86
2023-01-15T14:45:07.927Z,90.18
2023-01-15T14:47:47.186Z,88.72
2023-01-15T14:50:31.441Z,88.82
2023-01-15T14:53:10.869Z,89.65
2023-01-15T14:55:41.372Z,89.33
2023-01-15T14:58:22.312Z,89.71
2023-01-15T15:00:55.706Z,89.54
2023-01-15T15:03:33.282Z,90.54
2023-01-15T15:06:01.576Z,89.63
2023-01-15T15:08:33.664Z,90.16
2023-01-15T15:11:02.649Z,89.40
2023-01-15T15:13:31.507Z,89.36
2023-01-15T15:16:08.188Z,88.05
2023-01-15T15:18:44.758Z,88.35
2023-01-15T15:21:26.692Z,87.82
2023-01-15T15:23:59.314Z,87.43
2023-01-15T15:26:26.506Z,87.43
2023-01-15T15:29:00.656Z,86.87
2023-01-15T15:31:30.955Z,84.59
2023-01-15T15:33:59.229Z,84.25
2023-01-15T15:36:30.497Z,84.80
2023-01-15T15:39:05.314Z,84.62
2023-01-15T15:41:55.061Z,84.89
2023-01-15T15:44:58.465Z,84.36
2023-01-15T15:47:45.388Z,84.20
2023-01-15T15:50:31.395Z,84.44
2023-01-15T15:52:59.085Z,83.95
2023-01-15T15:55:34.281Z,84.79
2023-01-15T15:58:03.488Z,84.69
2023-01-15T16:00:34.095Z,84.46
2023-01-15T16:03:07.226Z,83.36
2023-01-15T16:05:34.625Z,84.29
2023-01-15T16:08:21.283Z,85.27
2023-01-15T16:10:51.650Z,83.73
2023-01-15T16:13:26.353Z,82.92
2023-01-15T16:15:56.346Z,84.90
2023-01-15T16:18:36.512Z,83.69
2023-01-15T16:21:04.212Z,83.39
2023-01-15T16:23:32.149Z,84.03
2023-01-15T16:26:05.662Z,83.25
2023-01-15T16:28:40.764Z,82.88
2023-01-15T16:31:08.783Z,83.18
2023-01-15T16:33:40.431Z,83.91
2023-01-15T16:36:08.575Z,83.55
2023-01-15T16:38:41.932Z,83.75
2023-01-15T16:41:35.411Z,84.02
2023-01-15T16:44:05.037Z,84.53
2023-01-15T16:46:35.876Z,84.82
2023-01-15T16:49:21.943Z,84.73
2023-01-15T16:51:50.496Z,84.87
2023-01-15T16:54:29.997Z,85.64
2023-01-15T16:56:59.861Z,86.60
2023-01-15T16:59:27.090Z,87.73
2023-01-15T17:02:07.167Z,88.23
2023-01-15T17:04:36.984Z,89.82
2023-01-15T17:07:13.637Z,90.93
2023-01-15T17:09:56.818Z,91.97
2023-01-15T17:12:42.036Z,92.60
2023-01-15T17:15:15.342Z,93.45
2023-01-15T17:17:43.680Z,94.40
2023-01-15T17:20:12.755Z,95.42
2023-01-15T17:22:45.081Z,96.04
2023-01-15T17:25:24.385Z,96.79
2023-01-15T17:27:51.956Z,97.29
2023-01-15T17:30:19.487Z,97.93
2023-01-15T17:32:47.137Z,98.39
2023-01-15T17:35:29.052Z,98.76
2023-01-15T17:37:56.476Z,99.10
2023-01-15T17:40:24.049Z,99.46
2023-01-15T17:42:51.225Z,99.58
2023-01-15T17:45:26.893Z,99.82
2023-01-15T17:47:54.084Z,100.00
2023-01-15T17:50:22.001Z,100.00
2023-01-15T17:52:49.797Z,100.00
2023-01-15T17:55:38.306Z,100.00
2023-01-15T17:58:24.602Z,100.00
2023-01-15T18:01:11.334Z,100.00
2023-01-15T18:04:03.627Z,100.00
2023-01-15T18:06:31.609Z,100.00
2023-01-15T18:09:00.630Z,100.00
2023-01-15T18:11:27.841Z,100.00
2023-01-15T18:13:56.195Z,100.00
2023-01-15T18:16:25.727Z,100.00
2023-01-15T18:18:54.050Z,100.00
2023-01-15T18:21:22.174Z,100.00
2023-01-15T18:23:49.073Z,100.00
2023-01-15T18:26:16.487Z,100.00
2023-01-15T18:28:45.300Z,100.00
2023-01-15T18:31:12.584Z,100.00
2023-01-15T18:33:39.522Z,100.00
2023-01-15T18:36:14.575Z,100.00
2023-01-15T18:38:47.225Z,100.00
2023-01-15T18:41:35.663Z,100.00
2023-01-15T18:44:30.498Z,100.00
2023-01-15T18:47:00.281Z,100.00
2023-01-15T18:49:28.174Z,100.00
2023-01-15T18:52:14.789Z,100.00
2023-01-15T18:54:41.723Z,100.00
2023-01-15T18:57:08.970Z,100.00
2023-01-15T18:59:36.050Z,100.00
2023-01-15T19:02:03.597Z,100.00
2023-01-15T19:04:30.929Z,100.00
2023-01-15T19:06:58.412Z,100.00
2023-01-15T19:09:25.663Z,100.00
2023-01-15T19:11:53.303Z,100.00
2023-01-15T19:14:39.935Z,100.00
2023-01-15T19:17:30.232Z,100.00
2023-01-15T19:19:57.104Z,100.00
2023-01-15T19:22:42.572Z,100.00
2023-01-15T19:25:10.205Z,100.00
2023-01-15T19:27:37.572Z,100.00
2023-01-15T19:30:06.965Z,100.00
2023-01-15T19:32:34.525Z,100.00
2023-01-15T19:35:01.897Z,100.00
2023-01-15T19:37:31.374Z,100.00
2023-01-15T19:39:58.499Z,100.00
2023-01-15T19:42:44.039Z,100.00
2023-01-15T19:45:30.118Z,100.00
2023-01-15T19:48:16.682Z,100.00
2023-01-15T19:50:46.062Z,100.00
2023-01-15T19:53:13.860Z,100.00
2023-01-15T19:55:44.047Z,100.00
2023-01-15T19:58:13.251Z,100.00
2023-01-15T20:00:43.445Z,100.00
2023-01-15T20:03:12.405Z,100.00
2023-01-15T20:05:42.189Z,100.00
2023-01-15T20:08:12.870Z,100.00
2023-01-15T20:10:42.494Z,100.00
2023-01-15T20:13:34.433Z,100.00
2023-01-15T20:16:13.525Z,100.00
2023-01-15T20:18:41.301Z,100.00
2023-01-15T20:21:12.292Z,100.00
2023-01-15T20:23:40.176Z,100.00
2023-01-15T20:26:12.854Z,100.00
2023-01-15T20:28:42.385Z,100.00
2023-01-15T20:31:17.675Z,100.00
2023-01-15T20:33:45.924Z,100.00
2023-01-15T20:36:12.918Z,100.00
2023-01-15T20:38:40.172Z,100.00
2023-01-15T20:41:26.915Z,100.00
2023-01-15T20:44:12.688Z,100.00
2023-01-15T20:46:39.673Z,100.00
2023-01-15T20:49:25.171Z,100.00
2023-01-15T20:51:52.908Z,100.00
2023-01-15T20:54:21.331Z,100.00
2023-01-15T20:56:48.405Z,100.00
2023-01-15T20:59:15.813Z,100.00
2023-01-15T21:01:42.790Z,100.00
2023-01-15T21:04:10.740Z,100.00
2023-01-15T21:06:37.779Z,100.00
2023-01-15T21:09:06.097Z,100.00
2023-01-15T21:11:33.084Z,100.00
2023-01-15T21:14:00.494Z,100.00
2023-01-15T21:16:27.444Z,100.00
2023-01-15T21:18:54.788Z,100.00
2023-01-15T21:21:22.719Z,100.00
2023-01-15T21:23:50.372Z,100.00
2023-01-15T21:26:17.572Z,100.00
2023-01-15T21:28:45.505Z,100.00
2023-01-15T21:31:14.586Z,100.00
2023-01-15T21:33:41.987Z,100.00
2023-01-15T21:36:11.412Z,100.00
2023-01-15T21:38:38.938Z,100.00
2023-01-15T21:41:14.390Z,100.00
2023-01-15T21:44:01.751Z,100.00
2023-01-15T21:46:28.794Z,100.00
2023-01-15T21:48:57.678Z,100.00
2023-01-15T21:51:26.779Z,100.00
2023-01-15T21:53:54.475Z,100.00
2023-01-15T21:56:21.557Z,100.00
2023-01-15T21:58:48.773Z,100.00
2023-01-15T22:01:18.216Z,100.00
2023-01-15T22:03:46.183Z,100.00
2023-01-15T22:06:13.214Z,100.00
2023-01-15T22:08:40.590Z,100.00
2023-01-15T22:11:10.109Z,99.88
2023-01-15T22:13:37.948Z,99.56
2023-01-15T22:16:05.292Z,99.76
2023-01-15T22:18:33.752Z,99.41
2023-01-15T22:21:03.643Z,99.54
2023-01-15T22:23:31.120Z,99.41
2023-01-15T22:25:57.991Z,99.50
2023-01-15T22:28:25.354Z,99.36
2023-01-15T22:30:52.249Z,99.65
2023-01-15T22:33:19.689Z,99.43
2023-01-15T22:35:56.122Z,98.99
2023-01-15T22:38:23.312Z,98.92
2023-01-15T22:40:50.203Z,98.43
2023-01-15T22:43:17.620Z,98.76
2023-01-15T22:45:44.650Z,98.58
2023-01-15T22:48:12.085Z,98.48
2023-01-15T22:50:38.946Z,98.09
2023-01-15T22:53:06.221Z,97.87
2023-01-15T22:55:33.281Z,98.29
2023-01-15T22:58:00.472Z,98.20
2023-01-15T23:00:27.354Z,97.93
2023-01-15T23:02:54.619Z,97.71
2023-01-15T23:05:23.821Z,97.38
2023-01-15T23:07:51.255Z,97.65
2023-01-15T23:10:18.309Z,97.70
2023-01-15T23:12:45.559Z,98.13
2023-01-15T23:15:13.960Z,97.73
2023-01-15T23:17:41.292Z,98.02
2023-01-15T23:20:10.070Z,97.76
2023-01-15T23:22:37.669Z,97.44
2023-01-15T23:25:04.880Z,97.65
2023-01-15T23:27:32.189Z,97.34
2023-01-15T23:29:59.067Z,97.13
2023-01-15T23:32:26.716Z,97.11
2023-01-15T23:34:53.570Z,96.65
2023-01-15T23:37:20.886Z,97.00
2023-01-15T23:39:47.749Z,96.98
2023-01-15T23:42:33.542Z,97.02
2023-01-15T23:45:19.354Z,97.42
2023-01-15T23:47:46.602Z,97.53
2023-01-15T23:50:13.436Z,97.68
2023-01-15T23:52:40.998Z,97.97
2023-01-15T23:55:08.370Z,97.40
2023-01-15T23:57:35.563Z,98.00
